createdAt,value
2019-05-22T07:23:52.173Z,17.00
2019-05-22T07:26:21.629Z,17.10
2019-05-22T07:28:51.312Z,17.40
2019-05-22T07:31:20.864Z,17.80
2019-05-22T07:33:53.250Z,17.90
2019-05-22T07:36:24.552Z,17.90
2019-05-22T07:38:54.192Z,17.60
2019-05-22T07:41:24.159Z,17.10
2019-05-22T07:43:53.911Z,17.00
2019-05-22T07:46:24.204Z,17.10
2019-05-22T07:48:54.202Z,16.90
2019-05-22T07:51:24.440Z,16.90
2019-05-22T07:53:53.897Z,16.80
2019-05-22T07:56:24.237Z,16.90
2019-05-22T07:58:54.438Z,16.90
2019-05-22T08:01:23.985Z,16.90
2019-05-22T08:03:53.795Z,16.70
2019-05-22T08:06:23.429Z,16.90
2019-05-22T08:08:54.805Z,16.90
2019-05-22T08:11:26.258Z,17.20
2019-05-22T08:13:57.882Z,17.30
2019-05-22T08:16:28.561Z,17.20
2019-05-22T08:18:58.167Z,16.80
2019-05-22T08:21:31.433Z,16.70
2019-05-22T08:24:01.358Z,17.00
2019-05-22T08:26:32.200Z,17.20
2019-05-22T08:29:03.071Z,17.20
2019-05-22T08:31:33.890Z,16.90
2019-05-22T08:34:04.306Z,17.10
2019-05-22T08:36:38.333Z,17.40
2019-05-22T08:39:08.775Z,17.40
2019-05-22T08:41:42.137Z,17.20
2019-05-22T08:44:16.646Z,17.20
2019-05-22T08:46:42.825Z,17.00
2019-05-22T08:49:12.482Z,16.80
2019-05-22T08:51:42.017Z,16.50
2019-05-22T08:54:12.928Z,16.40
2019-05-22T08:56:46.138Z,16.50
2019-05-22T08:59:19.387Z,16.70
2019-05-22T09:01:47.724Z,16.90
2019-05-22T09:04:17.185Z,17.00
2019-05-22T09:06:46.716Z,17.40
2019-05-22T09:09:17.810Z,17.80
2019-05-22T09:11:47.245Z,18.00
2019-05-22T09:14:16.648Z,17.70
2019-05-22T09:16:47.813Z,17.40
2019-05-22T09:19:17.406Z,17.10
2019-05-22T09:21:47.242Z,16.90
2019-05-22T09:24:19.719Z,16.50
2019-05-22T09:26:49.414Z,16.20
2019-05-22T09:29:19.016Z,16.20
2019-05-22T09:31:48.445Z,16.30
2019-05-22T09:34:18.645Z,16.40
2019-05-22T09:36:48.262Z,16.70
2019-05-22T09:39:18.396Z,16.90
2019-05-22T09:41:47.869Z,17.20
2019-05-22T09:44:17.865Z,17.40
2019-05-22T09:46:47.492Z,17.70
2019-05-22T09:49:16.921Z,17.50
2019-05-22T09:51:46.338Z,17.50
2019-05-22T09:54:16.234Z,17.50
2019-05-22T09:56:45.664Z,17.50
2019-05-22T09:59:15.076Z,17.70
2019-05-22T10:01:44.490Z,17.70
2019-05-22T10:04:13.955Z,17.50
2019-05-22T10:06:43.465Z,17.40
2019-05-22T10:09:12.851Z,17.20
2019-05-22T10:11:42.240Z,17.40
2019-05-22T10:14:12.152Z,17.50
2019-05-22T10:16:41.596Z,17.70
2019-05-22T10:19:11.203Z,17.70
2019-05-22T10:21:41.501Z,17.60
2019-05-22T10:24:11.724Z,17.50
2019-05-22T10:26:41.250Z,17.40
2019-05-22T11:09:55.221Z,18.30
2019-05-22T11:12:24.705Z,18.00
2019-05-22T11:14:56.940Z,17.70
2019-05-22T11:17:26.483Z,17.50
2019-05-22T11:19:55.892Z,17.70
2019-05-22T11:22:26.258Z,17.70
2019-05-22T11:24:55.665Z,17.40
2019-05-22T11:27:25.327Z,17.50
2019-05-22T11:29:54.845Z,17.50
2019-05-22T11:32:24.593Z,17.60
2019-05-22T11:34:54.252Z,17.80
2019-05-22T11:37:24.003Z,18.40
2019-05-22T11:39:53.977Z,18.70
2019-05-22T11:42:23.877Z,19.00
2019-05-22T11:44:53.484Z,18.90
2019-05-22T11:47:23.212Z,19.00
2019-05-22T11:49:53.040Z,19.10
2019-05-22T11:52:22.483Z,19.20
2019-05-22T11:54:52.124Z,19.30
2019-05-22T11:57:21.838Z,19.20
2019-05-22T11:59:51.394Z,19.50
2019-05-22T12:02:21.750Z,19.60
2019-05-22T12:04:51.396Z,20.20
2019-05-22T12:07:21.577Z,20.40
2019-05-22T12:09:51.106Z,20.30
2019-05-22T12:12:20.949Z,19.70
2019-05-22T12:14:50.445Z,19.50
2019-05-22T12:17:36.824Z,18.90
2019-05-22T12:19:51.184Z,18.70
2019-05-22T12:40:07.793Z,20.80
2019-05-22T12:42:39.184Z,20.80
2019-05-22T12:45:09.628Z,20.10
2019-05-22T12:47:39.359Z,20.30
2019-05-22T12:50:09.384Z,20.50
2019-05-22T12:52:38.924Z,20.50
2019-05-22T12:55:08.830Z,20.20
2019-05-22T12:57:38.284Z,19.90
2019-05-22T13:00:10.582Z,19.80
2019-05-22T13:02:42.742Z,19.60
2019-05-22T13:05:14.419Z,19.50
2019-05-22T13:07:44.322Z,19.50
2019-05-22T13:10:15.128Z,19.40
2019-05-22T13:12:44.898Z,19.60
2019-05-22T13:15:14.811Z,19.60
2019-05-22T13:17:44.880Z,19.60
2019-05-22T13:20:15.536Z,19.50
2019-05-22T13:22:47.986Z,19.40
2019-05-22T13:25:19.836Z,19.50
2019-05-22T13:27:51.791Z,19.70
2019-05-22T13:30:28.216Z,20.10
2019-05-22T13:32:56.315Z,20.40
2019-05-22T13:35:28.257Z,20.80
2019-05-22T13:37:59.540Z,21.20
2019-05-22T13:40:30.543Z,21.40
2019-05-22T13:43:01.861Z,22.30
2019-05-22T13:45:32.855Z,23.40
2019-05-22T13:48:02.269Z,23.00
2019-05-22T13:50:31.806Z,22.60
2019-05-22T13:53:02.986Z,21.70
2019-05-22T13:55:33.491Z,21.30
2019-05-22T13:58:03.862Z,20.80
2019-05-22T14:00:38.932Z,22.30
2019-05-22T14:03:08.621Z,23.40
2019-05-22T14:05:39.524Z,23.80
2019-05-22T14:08:09.542Z,23.80
2019-05-22T14:10:39.799Z,23.00
2019-05-22T14:13:09.835Z,21.90
2019-05-22T14:15:50.403Z,21.00
2019-05-22T14:18:10.508Z,20.60
2019-05-22T14:20:40.258Z,21.60
2019-05-22T14:23:09.884Z,21.90
2019-05-22T14:25:39.504Z,21.00
2019-05-22T14:28:09.944Z,20.50
2019-05-22T14:30:39.466Z,20.00
2019-05-22T14:33:09.293Z,20.10
2019-05-22T14:35:48.793Z,20.50
2019-05-22T14:38:14.777Z,21.10
2019-05-22T14:40:44.433Z,21.80
2019-05-22T14:43:13.940Z,21.90
2019-05-22T14:45:44.742Z,21.60
2019-05-22T14:48:15.562Z,21.30
2019-05-22T14:50:45.449Z,21.40
2019-05-22T14:53:15.938Z,21.10
2019-05-22T14:55:46.346Z,20.90
2019-05-22T14:58:16.293Z,20.40
2019-05-22T15:00:46.688Z,20.20
2019-05-22T15:03:17.698Z,19.90
2019-05-22T15:05:47.324Z,19.90
2019-05-22T15:08:16.735Z,19.60
2019-05-22T15:10:47.542Z,19.70
2019-05-22T15:13:17.236Z,19.60
2019-05-22T15:15:46.729Z,20.20
2019-05-22T15:18:16.256Z,20.10
2019-05-22T15:20:56.629Z,19.80
2019-05-22T15:23:27.275Z,19.70
2019-05-22T15:25:56.775Z,19.90
2019-05-22T15:28:27.076Z,20.40
2019-05-22T15:30:56.817Z,20.70
2019-05-22T15:33:27.035Z,20.50
2019-05-22T15:35:56.472Z,20.80
2019-05-22T15:38:26.189Z,20.70
2019-05-22T15:40:55.817Z,21.00
2019-05-22T15:43:27.038Z,21.00
2019-05-22T15:45:58.562Z,20.90
2019-05-22T15:48:31.522Z,20.70
2019-05-22T15:51:05.942Z,20.70
2019-05-22T15:53:37.121Z,20.70
2019-05-22T15:56:08.712Z,20.60
2019-05-22T15:58:40.210Z,20.60
2019-05-22T16:01:13.038Z,20.30
2019-05-22T16:03:43.170Z,20.20
2019-05-22T16:06:14.790Z,20.30
2019-05-22T16:08:44.382Z,20.60
2019-05-22T16:11:17.029Z,20.70
2019-05-22T16:13:47.877Z,20.40
2019-05-22T16:16:20.209Z,20.50
2019-05-22T16:18:53.028Z,20.60
2019-05-22T16:21:23.016Z,20.50
2019-05-22T16:23:52.911Z,20.40
2019-05-22T16:26:23.153Z,20.50
2019-05-22T16:28:52.575Z,20.20
2019-05-22T16:31:23.261Z,20.10
2019-05-22T16:33:54.250Z,20.00
2019-05-22T16:36:24.946Z,20.10
2019-05-22T16:38:54.737Z,20.00
2019-05-22T16:41:25.716Z,19.90
2019-05-22T16:43:56.121Z,19.80
2019-05-22T16:46:26.142Z,19.70
2019-05-22T16:48:56.370Z,19.60
2019-05-22T16:51:27.566Z,19.30
2019-05-22T16:54:01.678Z,19.30
2019-05-22T16:56:32.063Z,19.20
2019-05-22T16:59:02.229Z,19.10
2019-05-22T17:01:32.147Z,18.90
2019-05-22T17:04:03.138Z,18.70
2019-05-22T17:06:34.353Z,18.60
2019-05-22T17:09:08.221Z,18.40
2019-05-22T17:11:38.406Z,18.30
2019-05-22T17:14:11.223Z,18.10
2019-05-22T17:16:41.513Z,18.10
2019-05-22T17:19:25.626Z,17.90
2019-05-22T17:21:43.374Z,17.80
2019-05-22T17:24:13.927Z,17.70
2019-05-22T17:26:43.816Z,17.70
2019-05-22T17:29:15.209Z,17.60
2019-05-22T17:31:44.872Z,17.50
2019-05-22T17:34:33.527Z,17.50
2019-05-22T17:37:11.938Z,17.60
2019-05-22T17:39:44.304Z,17.50
2019-05-22T17:42:18.103Z,17.40
2019-05-22T17:44:49.623Z,17.50
2019-05-22T17:47:22.369Z,17.50
2019-05-22T17:49:53.376Z,17.50
2019-05-22T17:52:25.164Z,17.50
2019-05-22T17:54:55.235Z,17.50
2019-05-22T17:57:25.355Z,17.40
2019-05-22T17:59:55.895Z,17.30
2019-05-22T18:02:29.917Z,17.30
2019-05-22T18:04:59.370Z,17.20
2019-05-22T18:07:31.704Z,17.20
2019-05-22T18:10:01.954Z,17.10
2019-05-22T18:12:32.333Z,17.00
2019-05-22T18:15:02.226Z,17.00
2019-05-22T18:17:31.991Z,16.90
2019-05-22T18:20:01.733Z,16.90
2019-05-22T18:22:31.495Z,16.80
2019-05-22T18:25:01.632Z,16.80
2019-05-22T18:27:31.710Z,16.80
2019-05-22T18:30:01.315Z,16.60
2019-05-22T18:32:32.210Z,16.50
2019-05-22T18:35:01.653Z,16.40
2019-05-22T18:37:31.097Z,16.40
2019-05-22T18:40:00.534Z,16.30
2019-05-22T18:42:30.230Z,16.20
2019-05-22T18:44:59.849Z,16.10
2019-05-22T18:47:29.752Z,16.00
2019-05-22T18:49:59.646Z,16.00
2019-05-22T18:52:40.466Z,15.90
2019-05-22T18:55:00.779Z,15.80
2019-05-22T18:57:30.284Z,15.70
2019-05-22T19:00:05.026Z,15.60
2019-05-22T19:02:31.132Z,15.50
2019-05-22T19:05:00.678Z,15.40
2019-05-22T19:07:30.340Z,15.30
2019-05-22T19:09:59.801Z,15.20
2019-05-22T19:12:29.325Z,15.10
2019-05-22T19:14:58.762Z,15.00
2019-05-22T19:17:28.194Z,14.90
2019-05-22T19:19:57.654Z,14.90
2019-05-22T19:22:27.527Z,14.90
2019-05-22T19:24:58.024Z,14.90
2019-05-22T19:27:27.905Z,14.80
2019-05-22T19:29:57.389Z,14.80
2019-05-22T19:32:26.909Z,14.70
2019-05-22T19:34:56.367Z,14.60
2019-05-22T19:37:26.062Z,14.50
2019-05-22T19:39:56.093Z,14.40
2019-05-22T19:42:26.445Z,14.40
2019-05-22T19:44:56.338Z,14.30
2019-05-22T19:47:26.538Z,14.20
2019-05-22T19:50:00.179Z,14.20
2019-05-22T19:52:41.730Z,14.20
2019-05-22T19:55:07.123Z,14.10
2019-05-22T19:57:37.121Z,14.00
2019-05-22T20:00:06.780Z,13.90
2019-05-22T20:02:36.930Z,13.90
2019-05-22T20:05:06.879Z,13.80
2019-05-22T20:07:36.985Z,13.80
2019-05-22T20:10:07.198Z,13.70
2019-05-22T20:12:37.202Z,13.70
2019-05-22T20:15:09.020Z,13.60
2019-05-22T20:17:43.596Z,13.60
2019-05-22T20:20:15.136Z,13.50
2019-05-22T20:22:45.911Z,13.50
2019-05-22T20:25:16.352Z,13.40
2019-05-22T20:27:46.616Z,13.40
2019-05-22T20:30:18.681Z,13.30
2019-05-22T20:32:48.832Z,13.30
2019-05-22T20:35:18.881Z,13.30
2019-05-22T20:37:49.693Z,13.20
2019-05-22T20:40:20.448Z,13.20
2019-05-22T20:42:50.597Z,13.20
2019-05-22T20:45:24.686Z,13.20
2019-05-22T20:48:14.656Z,13.20
2019-05-22T20:50:44.996Z,13.20
2019-05-22T20:53:16.760Z,13.30
2019-05-22T20:55:48.411Z,13.30
2019-05-22T20:58:19.432Z,13.30
2019-05-22T21:00:51.526Z,13.20
2019-05-22T21:03:22.325Z,13.10
2019-05-22T21:05:54.245Z,13.10
2019-05-22T21:08:26.770Z,13.10
2019-05-22T21:10:59.629Z,13.10
2019-05-22T21:13:30.321Z,13.10
2019-05-22T21:15:59.772Z,13.00
2019-05-22T21:18:36.883Z,13.00
2019-05-22T21:21:08.696Z,13.00
2019-05-22T21:23:38.674Z,12.90
2019-05-22T21:26:09.765Z,12.80
2019-05-22T21:28:40.468Z,12.80
2019-05-22T21:31:09.906Z,12.80
2019-05-22T21:33:39.865Z,12.70
2019-05-22T21:36:12.533Z,12.70
2019-05-22T21:38:42.169Z,12.60
2019-05-22T21:41:12.316Z,12.60
2019-05-22T21:43:42.100Z,12.60
2019-05-22T21:46:12.354Z,12.60
2019-05-22T21:48:42.596Z,12.40
2019-05-22T21:51:16.922Z,12.50
2019-05-22T21:53:46.463Z,12.40
2019-05-22T21:56:17.086Z,12.40
2019-05-22T21:58:47.532Z,12.40
2019-05-22T22:01:31.320Z,12.40
2019-05-22T22:04:14.923Z,12.40
2019-05-22T22:06:45.230Z,12.40
2019-05-22T22:09:16.216Z,12.40
2019-05-22T22:11:47.547Z,12.50
2019-05-22T22:14:17.594Z,12.50
2019-05-22T22:16:47.946Z,12.40
2019-05-22T22:19:18.449Z,12.40
2019-05-22T22:21:48.552Z,12.40
2019-05-22T22:24:18.239Z,12.50
2019-05-22T22:26:48.569Z,12.50
2019-05-22T22:29:19.028Z,12.40
2019-05-22T22:31:49.064Z,12.30
2019-05-22T22:34:43.128Z,12.30
2019-05-22T22:37:13.764Z,12.30
2019-05-22T22:39:47.662Z,12.30
2019-05-22T22:42:18.197Z,12.30
2019-05-22T22:44:52.059Z,12.30
2019-05-22T22:47:27.992Z,12.30
2019-05-22T22:49:57.723Z,12.30
2019-05-22T22:52:29.187Z,12.30
2019-05-22T22:54:59.199Z,12.30
2019-05-22T22:57:30.153Z,12.30
2019-05-22T22:59:59.759Z,12.20
2019-05-22T23:02:32.688Z,12.10
2019-05-22T23:05:03.333Z,12.10
2019-05-22T23:07:35.980Z,12.00
2019-05-22T23:10:08.764Z,11.90
2019-05-22T23:12:39.462Z,11.90
2019-05-22T23:15:09.873Z,11.90
2019-05-22T23:17:40.588Z,11.80
2019-05-22T23:20:09.292Z,11.90
2019-05-22T23:22:40.115Z,11.80
2019-05-22T23:25:10.544Z,11.80
2019-05-22T23:27:40.572Z,11.90
2019-05-22T23:30:10.867Z,11.80
2019-05-22T23:32:42.096Z,11.80
2019-05-22T23:35:11.748Z,11.60
2019-05-22T23:37:41.438Z,11.60
2019-05-22T23:40:13.348Z,11.50
2019-05-22T23:42:44.240Z,11.50
2019-05-22T23:45:18.703Z,11.40
2019-05-22T23:48:14.721Z,11.40
2019-05-22T23:50:44.957Z,11.50
2019-05-22T23:53:16.155Z,11.50
2019-05-22T23:55:46.422Z,11.40
2019-05-22T23:58:17.545Z,11.40
